sensor_id;sensor_type;location;lat;lon;timestamp;P1;durP1;ratioP1;P2;durP2;ratioP2
13718;SDS011;6931;51.100;17.068;2024-02-15T00:01:42;21.00;;;12.13;;
13718;SDS011;6931;51.100;17.068;2024-02-15T00:04:09;20.35;;;12.48;;
13718;SDS011;6931;51.100;17.068;2024-02-15T00:06:37;24.85;;;13.55;;
13718;SDS011;6931;51.100;17.068;2024-02-15T00:09:03;24.88;;;13.48;;
13718;SDS011;6931;51.100;17.068;2024-02-15T00:11:30;19.20;;;12.98;;
13718;SDS011;6931;51.100;17.068;2024-02-15T00:13:59;24.83;;;13.73;;
13718;SDS011;6931;51.100;17.068;2024-02-15T00:16:27;22.35;;;12.55;;
13718;SDS011;6931;51.100;17.068;2024-02-15T00:18:53;17.75;;;12.35;;
13718;SDS011;6931;51.100;17.068;2024-02-15T00:21:21;19.13;;;12.52;;
13718;SDS011;6931;51.100;17.068;2024-02-15T00:23:49;21.23;;;12.18;;
13718;SDS011;6931;51.100;17.068;2024-02-15T00:26:15;18.95;;;11.80;;
13718;SDS011;6931;51.100;17.068;2024-02-15T00:28:42;17.63;;;12.43;;
13718;SDS011;6931;51.100;17.068;2024-02-15T00:31:09;18.67;;;12.40;;
13718;SDS011;6931;51.100;17.068;2024-02-15T00:33:35;16.05;;;12.13;;
13718;SDS011;6931;51.100;17.068;2024-02-15T00:36:04;16.02;;;11.48;;
13718;SDS011;6931;51.100;17.068;2024-02-15T00:38:34;14.45;;;10.90;;
13718;SDS011;6931;51.100;17.068;2024-02-15T00:41:01;21.75;;;12.10;;
13718;SDS011;6931;51.100;17.068;2024-02-15T00:43:27;19.73;;;11.60;;
13718;SDS011;6931;51.100;17.068;2024-02-15T00:45:54;17.55;;;11.15;;
13718;SDS011;6931;51.100;17.068;2024-02-15T00:48:20;17.25;;;11.38;;
13718;SDS011;6931;51.100;17.068;2024-02-15T00:50:49;18.55;;;11.15;;
13718;SDS011;6931;51.100;17.068;2024-02-15T00:53:16;15.00;;;11.57;;
13718;SDS011;6931;51.100;17.068;2024-02-15T00:55:43;17.42;;;12.30;;
13718;SDS011;6931;51.100;17.068;2024-02-15T00:58:09;21.95;;;13.07;;
13718;SDS011;6931;51.100;17.068;2024-02-15T01:00:36;19.42;;;12.52;;
13718;SDS011;6931;51.100;17.068;2024-02-15T01:03:02;18.75;;;12.65;;
13718;SDS011;6931;51.100;17.068;2024-02-15T01:05:29;22.90;;;12.98;;
13718;SDS011;6931;51.100;17.068;2024-02-15T01:07:56;16.95;;;12.35;;
13718;SDS011;6931;51.100;17.068;2024-02-15T01:10:23;19.20;;;12.35;;
13718;SDS011;6931;51.100;17.068;2024-02-15T01:12:53;18.40;;;12.98;;
13718;SDS011;6931;51.100;17.068;2024-02-15T01:15:20;17.52;;;11.50;;
13718;SDS011;6931;51.100;17.068;2024-02-15T01:17:47;19.77;;;12.82;;
13718;SDS011;6931;51.100;17.068;2024-02-15T01:20:13;22.85;;;12.05;;
13718;SDS011;6931;51.100;17.068;2024-02-15T01:22:40;18.23;;;11.52;;
13718;SDS011;6931;51.100;17.068;2024-02-15T01:25:06;22.80;;;12.05;;
13718;SDS011;6931;51.100;17.068;2024-02-15T01:27:33;16.30;;;10.98;;
13718;SDS011;6931;51.100;17.068;2024-02-15T01:30:00;16.23;;;10.57;;
13718;SDS011;6931;51.100;17.068;2024-02-15T01:32:26;18.10;;;11.68;;
13718;SDS011;6931;51.100;17.068;2024-02-15T01:34:53;14.82;;;10.68;;
13718;SDS011;6931;51.100;17.068;2024-02-15T01:37:21;16.85;;;11.30;;
13718;SDS011;6931;51.100;17.068;2024-02-15T01:39:48;17.30;;;11.70;;
13718;SDS011;6931;51.100;17.068;2024-02-15T01:42:15;19.45;;;11.07;;
13718;SDS011;6931;51.100;17.068;2024-02-15T01:44:41;17.00;;;10.68;;
13718;SDS011;6931;51.100;17.068;2024-02-15T01:47:10;15.20;;;10.63;;
13718;SDS011;6931;51.100;17.068;2024-02-15T01:49:37;14.93;;;10.48;;
13718;SDS011;6931;51.100;17.068;2024-02-15T01:52:04;15.30;;;10.60;;
13718;SDS011;6931;51.100;17.068;2024-02-15T01:54:31;16.00;;;10.15;;
13718;SDS011;6931;51.100;17.068;2024-02-15T01:56:58;15.32;;;9.68;;
13718;SDS011;6931;51.100;17.068;2024-02-15T01:59:25;13.68;;;9.02;;
13718;SDS011;6931;51.100;17.068;2024-02-15T02:01:51;13.40;;;9.95;;
13718;SDS011;6931;51.100;17.068;2024-02-15T02:04:18;15.98;;;10.00;;
13718;SDS011;6931;51.100;17.068;2024-02-15T02:06:44;18.05;;;10.05;;
13718;SDS011;6931;51.100;17.068;2024-02-15T02:09:11;13.93;;;9.30;;
13718;SDS011;6931;51.100;17.068;2024-02-15T02:11:43;15.23;;;9.50;;
13718;SDS011;6931;51.100;17.068;2024-02-15T02:14:11;16.48;;;10.02;;
13718;SDS011;6931;51.100;17.068;2024-02-15T02:16:38;16.05;;;9.55;;
13718;SDS011;6931;51.100;17.068;2024-02-15T02:19:05;18.30;;;9.75;;
13718;SDS011;6931;51.100;17.068;2024-02-15T02:21:36;14.20;;;8.77;;
13718;SDS011;6931;51.100;17.068;2024-02-15T02:24:02;15.80;;;9.98;;
13718;SDS011;6931;51.100;17.068;2024-02-15T02:26:34;13.30;;;9.27;;
13718;SDS011;6931;51.100;17.068;2024-02-15T02:29:03;14.90;;;9.20;;
13718;SDS011;6931;51.100;17.068;2024-02-15T02:31:34;13.20;;;8.95;;
13718;SDS011;6931;51.100;17.068;2024-02-15T02:34:01;14.63;;;10.00;;
13718;SDS011;6931;51.100;17.068;2024-02-15T02:36:27;13.27;;;9.13;;
13718;SDS011;6931;51.100;17.068;2024-02-15T02:38:55;15.32;;;9.65;;
13718;SDS011;6931;51.100;17.068;2024-02-15T02:41:27;13.15;;;9.70;;
13718;SDS011;6931;51.100;17.068;2024-02-15T02:43:55;14.85;;;9.52;;
13718;SDS011;6931;51.100;17.068;2024-02-15T02:46:22;14.52;;;9.77;;
13718;SDS011;6931;51.100;17.068;2024-02-15T02:48:48;15.73;;;9.02;;
13718;SDS011;6931;51.100;17.068;2024-02-15T02:51:15;15.15;;;10.18;;
13718;SDS011;6931;51.100;17.068;2024-02-15T02:53:42;15.93;;;9.25;;
13718;SDS011;6931;51.100;17.068;2024-02-15T02:56:08;14.55;;;10.13;;
13718;SDS011;6931;51.100;17.068;2024-02-15T02:58:35;15.75;;;9.68;;
13718;SDS011;6931;51.100;17.068;2024-02-15T03:01:02;13.63;;;9.73;;
13718;SDS011;6931;51.100;17.068;2024-02-15T03:03:28;13.20;;;10.18;;
13718;SDS011;6931;51.100;17.068;2024-02-15T03:05:55;14.45;;;9.93;;
13718;SDS011;6931;51.100;17.068;2024-02-15T03:08:22;13.35;;;10.05;;
13718;SDS011;6931;51.100;17.068;2024-02-15T03:10:48;13.10;;;9.05;;
13718;SDS011;6931;51.100;17.068;2024-02-15T03:13:15;13.48;;;8.82;;
13718;SDS011;6931;51.100;17.068;2024-02-15T03:15:42;14.82;;;9.30;;
13718;SDS011;6931;51.100;17.068;2024-02-15T03:18:08;14.82;;;8.60;;
13718;SDS011;6931;51.100;17.068;2024-02-15T03:20:36;28.85;;;10.27;;
13718;SDS011;6931;51.100;17.068;2024-02-15T03:23:03;14.43;;;9.48;;
13718;SDS011;6931;51.100;17.068;2024-02-15T03:25:29;11.95;;;9.23;;
13718;SDS011;6931;51.100;17.068;2024-02-15T03:27:56;12.80;;;9.35;;
13718;SDS011;6931;51.100;17.068;2024-02-15T03:30:26;12.98;;;9.05;;
13718;SDS011;6931;51.100;17.068;2024-02-15T03:32:53;11.30;;;8.40;;
13718;SDS011;6931;51.100;17.068;2024-02-15T03:35:21;12.32;;;9.07;;
13718;SDS011;6931;51.100;17.068;2024-02-15T03:37:50;12.05;;;9.07;;
13718;SDS011;6931;51.100;17.068;2024-02-15T03:40:18;12.52;;;8.52;;
13718;SDS011;6931;51.100;17.068;2024-02-15T03:42:45;10.75;;;8.10;;
13718;SDS011;6931;51.100;17.068;2024-02-15T03:45:13;10.40;;;8.10;;
13718;SDS011;6931;51.100;17.068;2024-02-15T03:47:41;10.57;;;8.20;;
13718;SDS011;6931;51.100;17.068;2024-02-15T03:50:08;10.35;;;8.13;;
13718;SDS011;6931;51.100;17.068;2024-02-15T03:52:41;10.95;;;8.50;;
13718;SDS011;6931;51.100;17.068;2024-02-15T03:55:07;14.43;;;8.38;;
13718;SDS011;6931;51.100;17.068;2024-02-15T03:57:34;11.43;;;8.13;;
13718;SDS011;6931;51.100;17.068;2024-02-15T04:00:00;12.10;;;7.80;;
13718;SDS011;6931;51.100;17.068;2024-02-15T04:02:27;9.18;;;7.65;;
13718;SDS011;6931;51.100;17.068;2024-02-15T04:04:54;9.93;;;7.32;;
13718;SDS011;6931;51.100;17.068;2024-02-15T04:07:24;10.77;;;8.02;;
13718;SDS011;6931;51.100;17.068;2024-02-15T04:09:53;10.40;;;8.23;;
13718;SDS011;6931;51.100;17.068;2024-02-15T04:12:19;9.75;;;8.00;;
13718;SDS011;6931;51.100;17.068;2024-02-15T04:14:46;12.60;;;8.48;;
13718;SDS011;6931;51.100;17.068;2024-02-15T04:17:13;10.63;;;9.02;;
13718;SDS011;6931;51.100;17.068;2024-02-15T04:19:46;12.18;;;9.32;;
13718;SDS011;6931;51.100;17.068;2024-02-15T04:22:13;11.98;;;10.10;;
13718;SDS011;6931;51.100;17.068;2024-02-15T04:24:43;14.27;;;10.70;;
13718;SDS011;6931;51.100;17.068;2024-02-15T04:27:09;14.10;;;10.25;;
13718;SDS011;6931;51.100;17.068;2024-02-15T04:29:40;13.23;;;9.82;;
13718;SDS011;6931;51.100;17.068;2024-02-15T04:32:08;13.15;;;9.57;;
13718;SDS011;6931;51.100;17.068;2024-02-15T04:34:39;15.00;;;9.50;;
13718;SDS011;6931;51.100;17.068;2024-02-15T04:37:05;14.93;;;8.70;;
13718;SDS011;6931;51.100;17.068;2024-02-15T04:39:35;11.38;;;9.32;;
13718;SDS011;6931;51.100;17.068;2024-02-15T04:42:02;14.20;;;8.48;;
13718;SDS011;6931;51.100;17.068;2024-02-15T04:44:29;9.10;;;8.15;;
13718;SDS011;6931;51.100;17.068;2024-02-15T04:46:56;10.18;;;8.45;;
13718;SDS011;6931;51.100;17.068;2024-02-15T04:49:23;11.48;;;7.40;;
13718;SDS011;6931;51.100;17.068;2024-02-15T04:51:50;11.20;;;7.80;;
13718;SDS011;6931;51.100;17.068;2024-02-15T04:54:16;10.07;;;7.32;;
13718;SDS011;6931;51.100;17.068;2024-02-15T04:56:44;9.45;;;7.53;;
13718;SDS011;6931;51.100;17.068;2024-02-15T04:59:12;9.63;;;7.50;;
13718;SDS011;6931;51.100;17.068;2024-02-15T05:01:41;10.18;;;7.60;;
13718;SDS011;6931;51.100;17.068;2024-02-15T05:04:11;12.50;;;8.40;;
13718;SDS011;6931;51.100;17.068;2024-02-15T05:06:38;9.25;;;7.30;;
13718;SDS011;6931;51.100;17.068;2024-02-15T05:09:05;8.15;;;7.28;;
13718;SDS011;6931;51.100;17.068;2024-02-15T05:11:37;13.65;;;8.00;;
13718;SDS011;6931;51.100;17.068;2024-02-15T05:14:07;11.48;;;7.57;;
13718;SDS011;6931;51.100;17.068;2024-02-15T05:16:34;9.02;;;7.63;;
13718;SDS011;6931;51.100;17.068;2024-02-15T05:19:00;10.80;;;7.22;;
13718;SDS011;6931;51.100;17.068;2024-02-15T05:21:28;8.73;;;7.82;;
13718;SDS011;6931;51.100;17.068;2024-02-15T05:23:54;10.77;;;7.18;;
13718;SDS011;6931;51.100;17.068;2024-02-15T05:26:22;8.40;;;7.07;;
13718;SDS011;6931;51.100;17.068;2024-02-15T05:28:49;11.35;;;7.85;;
13718;SDS011;6931;51.100;17.068;2024-02-15T05:31:20;9.25;;;7.47;;
13718;SDS011;6931;51.100;17.068;2024-02-15T05:33:47;10.25;;;8.48;;
13718;SDS011;6931;51.100;17.068;2024-02-15T05:36:15;9.18;;;7.80;;
13718;SDS011;6931;51.100;17.068;2024-02-15T05:38:41;9.30;;;7.22;;
13718;SDS011;6931;51.100;17.068;2024-02-15T05:41:08;11.85;;;8.00;;
13718;SDS011;6931;51.100;17.068;2024-02-15T05:43:34;9.95;;;8.13;;
13718;SDS011;6931;51.100;17.068;2024-02-15T05:46:03;8.90;;;8.00;;
13718;SDS011;6931;51.100;17.068;2024-02-15T05:48:30;11.65;;;7.70;;
13718;SDS011;6931;51.100;17.068;2024-02-15T05:50:56;11.52;;;8.07;;
13718;SDS011;6931;51.100;17.068;2024-02-15T05:53:24;10.13;;;8.32;;
13718;SDS011;6931;51.100;17.068;2024-02-15T05:55:51;10.32;;;7.93;;
13718;SDS011;6931;51.100;17.068;2024-02-15T05:58:18;12.02;;;8.50;;
13718;SDS011;6931;51.100;17.068;2024-02-15T06:00:44;14.05;;;7.90;;
13718;SDS011;6931;51.100;17.068;2024-02-15T06:03:11;9.30;;;8.30;;
13718;SDS011;6931;51.100;17.068;2024-02-15T06:05:38;10.27;;;9.18;;
13718;SDS011;6931;51.100;17.068;2024-02-15T06:08:06;9.23;;;8.00;;
13718;SDS011;6931;51.100;17.068;2024-02-15T06:10:32;18.05;;;9.20;;
13718;SDS011;6931;51.100;17.068;2024-02-15T06:12:59;14.75;;;9.07;;
13718;SDS011;6931;51.100;17.068;2024-02-15T06:15:25;22.58;;;9.18;;
13718;SDS011;6931;51.100;17.068;2024-02-15T06:17:52;14.32;;;9.00;;
13718;SDS011;6931;51.100;17.068;2024-02-15T06:20:19;16.17;;;8.85;;
13718;SDS011;6931;51.100;17.068;2024-02-15T06:22:47;12.20;;;8.77;;
13718;SDS011;6931;51.100;17.068;2024-02-15T06:25:14;14.43;;;9.30;;
13718;SDS011;6931;51.100;17.068;2024-02-15T06:27:41;12.27;;;9.07;;
13718;SDS011;6931;51.100;17.068;2024-02-15T06:30:09;9.60;;;8.35;;
13718;SDS011;6931;51.100;17.068;2024-02-15T06:32:54;11.52;;;8.90;;
13718;SDS011;6931;51.100;17.068;2024-02-15T06:35:39;11.40;;;9.40;;
13718;SDS011;6931;51.100;17.068;2024-02-15T06:38:25;14.02;;;9.48;;
13718;SDS011;6931;51.100;17.068;2024-02-15T06:41:10;12.50;;;10.05;;
13718;SDS011;6931;51.100;17.068;2024-02-15T06:43:37;15.32;;;10.15;;
13718;SDS011;6931;51.100;17.068;2024-02-15T06:46:05;11.05;;;9.48;;
13718;SDS011;6931;51.100;17.068;2024-02-15T06:48:32;16.42;;;9.23;;
13718;SDS011;6931;51.100;17.068;2024-02-15T06:50:58;13.95;;;9.80;;
13718;SDS011;6931;51.100;17.068;2024-02-15T06:53:25;12.95;;;9.20;;
13718;SDS011;6931;51.100;17.068;2024-02-15T06:55:51;14.43;;;9.65;;
13718;SDS011;6931;51.100;17.068;2024-02-15T06:58:18;13.75;;;9.15;;
13718;SDS011;6931;51.100;17.068;2024-02-15T07:00:44;13.73;;;9.63;;
13718;SDS011;6931;51.100;17.068;2024-02-15T07:03:11;11.18;;;8.20;;
13718;SDS011;6931;51.100;17.068;2024-02-15T07:05:37;11.27;;;9.18;;
13718;SDS011;6931;51.100;17.068;2024-02-15T07:08:10;13.65;;;9.48;;
13718;SDS011;6931;51.100;17.068;2024-02-15T07:10:37;18.33;;;10.57;;
13718;SDS011;6931;51.100;17.068;2024-02-15T07:13:05;16.58;;;10.05;;
13718;SDS011;6931;51.100;17.068;2024-02-15T07:15:33;14.25;;;8.50;;
13718;SDS011;6931;51.100;17.068;2024-02-15T07:18:04;11.57;;;8.10;;
13718;SDS011;6931;51.100;17.068;2024-02-15T07:20:33;13.60;;;8.70;;
13718;SDS011;6931;51.100;17.068;2024-02-15T07:22:59;14.85;;;8.30;;
13718;SDS011;6931;51.100;17.068;2024-02-15T07:25:27;11.20;;;8.00;;
13718;SDS011;6931;51.100;17.068;2024-02-15T07:27:54;12.30;;;7.97;;
13718;SDS011;6931;51.100;17.068;2024-02-15T07:30:20;15.82;;;8.85;;
13718;SDS011;6931;51.100;17.068;2024-02-15T07:32:50;15.77;;;8.70;;
13718;SDS011;6931;51.100;17.068;2024-02-15T07:35:17;15.05;;;8.90;;
13718;SDS011;6931;51.100;17.068;2024-02-15T07:37:53;12.77;;;8.93;;
13718;SDS011;6931;51.100;17.068;2024-02-15T07:40:25;21.48;;;9.32;;
13718;SDS011;6931;51.100;17.068;2024-02-15T07:42:56;20.13;;;8.90;;
13718;SDS011;6931;51.100;17.068;2024-02-15T07:45:22;14.30;;;8.50;;
13718;SDS011;6931;51.100;17.068;2024-02-15T07:47:49;12.00;;;8.45;;
13718;SDS011;6931;51.100;17.068;2024-02-15T07:50:16;17.00;;;8.48;;
13718;SDS011;6931;51.100;17.068;2024-02-15T07:52:46;14.25;;;8.70;;
13718;SDS011;6931;51.100;17.068;2024-02-15T07:55:13;17.05;;;8.48;;
13718;SDS011;6931;51.100;17.068;2024-02-15T07:57:39;11.48;;;7.78;;
13718;SDS011;6931;51.100;17.068;2024-02-15T08:00:06;16.80;;;8.32;;
13718;SDS011;6931;51.100;17.068;2024-02-15T08:02:37;14.80;;;7.60;;
13718;SDS011;6931;51.100;17.068;2024-02-15T08:05:07;14.55;;;8.52;;
13718;SDS011;6931;51.100;17.068;2024-02-15T08:07:37;13.43;;;7.78;;
13718;SDS011;6931;51.100;17.068;2024-02-15T08:10:04;13.68;;;7.55;;
13718;SDS011;6931;51.100;17.068;2024-02-15T08:12:33;12.05;;;7.53;;
13718;SDS011;6931;51.100;17.068;2024-02-15T08:14:59;9.25;;;7.32;;
13718;SDS011;6931;51.100;17.068;2024-02-15T08:17:26;13.43;;;7.80;;
13718;SDS011;6931;51.100;17.068;2024-02-15T08:19:53;10.38;;;7.55;;
13718;SDS011;6931;51.100;17.068;2024-02-15T08:22:19;12.55;;;7.15;;
13718;SDS011;6931;51.100;17.068;2024-02-15T08:24:52;9.20;;;7.63;;
13718;SDS011;6931;51.100;17.068;2024-02-15T08:27:18;10.63;;;7.65;;
13718;SDS011;6931;51.100;17.068;2024-02-15T08:29:45;11.15;;;7.28;;
13718;SDS011;6931;51.100;17.068;2024-02-15T08:32:11;12.80;;;7.90;;
13718;SDS011;6931;51.100;17.068;2024-02-15T08:34:38;10.95;;;7.53;;
13718;SDS011;6931;51.100;17.068;2024-02-15T08:37:04;9.65;;;7.20;;
13718;SDS011;6931;51.100;17.068;2024-02-15T08:39:31;13.35;;;8.80;;
13718;SDS011;6931;51.100;17.068;2024-02-15T08:41:57;9.55;;;6.90;;
13718;SDS011;6931;51.100;17.068;2024-02-15T08:44:25;10.50;;;7.07;;
13718;SDS011;6931;51.100;17.068;2024-02-15T08:46:51;9.75;;;6.75;;
13718;SDS011;6931;51.100;17.068;2024-02-15T08:49:18;9.95;;;7.00;;
13718;SDS011;6931;51.100;17.068;2024-02-15T08:51:45;9.80;;;6.80;;
13718;SDS011;6931;51.100;17.068;2024-02-15T08:54:11;8.45;;;6.10;;
13718;SDS011;6931;51.100;17.068;2024-02-15T08:56:38;9.90;;;6.47;;
13718;SDS011;6931;51.100;17.068;2024-02-15T08:59:04;9.48;;;6.65;;
13718;SDS011;6931;51.100;17.068;2024-02-15T09:01:31;13.88;;;7.38;;
13718;SDS011;6931;51.100;17.068;2024-02-15T09:03:57;10.57;;;7.20;;
13718;SDS011;6931;51.100;17.068;2024-02-15T09:06:24;9.88;;;7.50;;
13718;SDS011;6931;51.100;17.068;2024-02-15T09:08:51;10.20;;;7.53;;
13718;SDS011;6931;51.100;17.068;2024-02-15T09:11:17;18.10;;;8.00;;
13718;SDS011;6931;51.100;17.068;2024-02-15T09:13:45;11.07;;;7.40;;
13718;SDS011;6931;51.100;17.068;2024-02-15T09:16:11;8.73;;;7.35;;
13718;SDS011;6931;51.100;17.068;2024-02-15T09:18:38;12.20;;;7.20;;
13718;SDS011;6931;51.100;17.068;2024-02-15T09:21:11;11.45;;;7.63;;
13718;SDS011;6931;51.100;17.068;2024-02-15T09:23:38;13.25;;;7.30;;
13718;SDS011;6931;51.100;17.068;2024-02-15T09:26:05;16.30;;;7.70;;
13718;SDS011;6931;51.100;17.068;2024-02-15T09:28:31;13.55;;;7.47;;
13718;SDS011;6931;51.100;17.068;2024-02-15T09:30:58;15.50;;;7.57;;
13718;SDS011;6931;51.100;17.068;2024-02-15T09:33:26;13.43;;;7.18;;
13718;SDS011;6931;51.100;17.068;2024-02-15T09:35:52;16.45;;;7.78;;
13718;SDS011;6931;51.100;17.068;2024-02-15T09:38:21;9.77;;;7.22;;
13718;SDS011;6931;51.100;17.068;2024-02-15T09:40:48;8.68;;;7.28;;
13718;SDS011;6931;51.100;17.068;2024-02-15T09:43:15;14.30;;;7.30;;
13718;SDS011;6931;51.100;17.068;2024-02-15T09:45:42;12.20;;;6.70;;
13718;SDS011;6931;51.100;17.068;2024-02-15T09:48:10;8.80;;;7.40;;
13718;SDS011;6931;51.100;17.068;2024-02-15T09:50:37;12.00;;;6.95;;
13718;SDS011;6931;51.100;17.068;2024-02-15T09:53:05;10.75;;;6.97;;
13718;SDS011;6931;51.100;17.068;2024-02-15T09:55:34;10.10;;;6.53;;
13718;SDS011;6931;51.100;17.068;2024-02-15T09:58:00;13.68;;;7.35;;
13718;SDS011;6931;51.100;17.068;2024-02-15T10:00:27;12.38;;;7.57;;
13718;SDS011;6931;51.100;17.068;2024-02-15T10:02:54;10.10;;;6.40;;
13718;SDS011;6931;51.100;17.068;2024-02-15T10:05:22;9.32;;;6.72;;
13718;SDS011;6931;51.100;17.068;2024-02-15T10:07:49;10.02;;;6.25;;
13718;SDS011;6931;51.100;17.068;2024-02-15T10:10:25;7.57;;;6.43;;
13718;SDS011;6931;51.100;17.068;2024-02-15T10:12:53;9.07;;;6.13;;
13718;SDS011;6931;51.100;17.068;2024-02-15T10:15:37;7.97;;;6.00;;
13718;SDS011;6931;51.100;17.068;2024-02-15T10:18:08;9.43;;;6.18;;
13718;SDS011;6931;51.100;17.068;2024-02-15T10:20:37;10.43;;;6.43;;
13718;SDS011;6931;51.100;17.068;2024-02-15T10:25:36;10.13;;;6.88;;
13718;SDS011;6931;51.100;17.068;2024-02-15T10:28:06;9.68;;;6.30;;
13718;SDS011;6931;51.100;17.068;2024-02-15T10:30:36;8.48;;;5.88;;
13718;SDS011;6931;51.100;17.068;2024-02-15T10:33:03;7.75;;;6.13;;
13718;SDS011;6931;51.100;17.068;2024-02-15T10:35:30;9.55;;;6.35;;
13718;SDS011;6931;51.100;17.068;2024-02-15T10:38:07;9.32;;;6.20;;
13718;SDS011;6931;51.100;17.068;2024-02-15T10:40:34;7.35;;;6.05;;
13718;SDS011;6931;51.100;17.068;2024-02-15T10:43:04;9.40;;;6.45;;
13718;SDS011;6931;51.100;17.068;2024-02-15T10:45:32;8.35;;;6.65;;
13718;SDS011;6931;51.100;17.068;2024-02-15T10:47:58;11.50;;;6.60;;
13718;SDS011;6931;51.100;17.068;2024-02-15T10:50:25;8.82;;;6.28;;
13718;SDS011;6931;51.100;17.068;2024-02-15T10:52:54;6.70;;;6.00;;
13718;SDS011;6931;51.100;17.068;2024-02-15T10:57:56;7.85;;;6.22;;
13718;SDS011;6931;51.100;17.068;2024-02-15T11:00:25;8.10;;;6.15;;
13718;SDS011;6931;51.100;17.068;2024-02-15T11:03:01;8.65;;;6.10;;
13718;SDS011;6931;51.100;17.068;2024-02-15T11:05:32;7.60;;;6.13;;
13718;SDS011;6931;51.100;17.068;2024-02-15T11:08:02;13.00;;;5.80;;
13718;SDS011;6931;51.100;17.068;2024-02-15T11:10:30;8.00;;;5.72;;
13718;SDS011;6931;51.100;17.068;2024-02-15T11:12:57;8.30;;;5.70;;
13718;SDS011;6931;51.100;17.068;2024-02-15T11:18:07;10.07;;;5.30;;
13718;SDS011;6931;51.100;17.068;2024-02-15T11:23:02;7.60;;;5.55;;
13718;SDS011;6931;51.100;17.068;2024-02-15T11:25:35;7.90;;;5.05;;
13718;SDS011;6931;51.100;17.068;2024-02-15T11:28:34;5.95;;;4.57;;
13718;SDS011;6931;51.100;17.068;2024-02-15T11:31:03;7.75;;;3.95;;
13718;SDS011;6931;51.100;17.068;2024-02-15T11:38:30;3.70;;;3.30;;
13718;SDS011;6931;51.100;17.068;2024-02-15T11:46:14;7.47;;;3.55;;
13718;SDS011;6931;51.100;17.068;2024-02-15T11:48:41;5.93;;;3.00;;
13718;SDS011;6931;51.100;17.068;2024-02-15T11:51:07;4.18;;;3.30;;
13718;SDS011;6931;51.100;17.068;2024-02-15T11:53:37;3.50;;;3.00;;
13718;SDS011;6931;51.100;17.068;2024-02-15T11:56:06;7.18;;;3.47;;
13718;SDS011;6931;51.100;17.068;2024-02-15T11:58:35;14.18;;;3.75;;
13718;SDS011;6931;51.100;17.068;2024-02-15T12:01:19;4.32;;;2.95;;
13718;SDS011;6931;51.100;17.068;2024-02-15T12:04:03;4.95;;;2.80;;
13718;SDS011;6931;51.100;17.068;2024-02-15T12:06:49;3.55;;;2.80;;
13718;SDS011;6931;51.100;17.068;2024-02-15T12:09:34;2.80;;;1.90;;
13718;SDS011;6931;51.100;17.068;2024-02-15T12:12:20;4.00;;;2.30;;
13718;SDS011;6931;51.100;17.068;2024-02-15T12:15:05;10.35;;;2.83;;
13718;SDS011;6931;51.100;17.068;2024-02-15T12:17:49;4.03;;;2.10;;
13718;SDS011;6931;51.100;17.068;2024-02-15T12:20:35;7.75;;;2.83;;
13718;SDS011;6931;51.100;17.068;2024-02-15T12:23:02;7.35;;;2.50;;
13718;SDS011;6931;51.100;17.068;2024-02-15T12:25:28;3.80;;;2.45;;
13718;SDS011;6931;51.100;17.068;2024-02-15T12:28:01;2.83;;;1.90;;
13718;SDS011;6931;51.100;17.068;2024-02-15T12:30:34;5.15;;;2.00;;
13718;SDS011;6931;51.100;17.068;2024-02-15T12:33:13;4.80;;;1.75;;
13718;SDS011;6931;51.100;17.068;2024-02-15T12:35:46;1.92;;;1.63;;
13718;SDS011;6931;51.100;17.068;2024-02-15T12:38:13;3.03;;;1.63;;
13718;SDS011;6931;51.100;17.068;2024-02-15T12:40:43;5.00;;;1.70;;
13718;SDS011;6931;51.100;17.068;2024-02-15T12:43:13;1.95;;;1.65;;
13718;SDS011;6931;51.100;17.068;2024-02-15T12:45:40;3.30;;;2.00;;
13718;SDS011;6931;51.100;17.068;2024-02-15T12:48:07;1.70;;;1.50;;
13718;SDS011;6931;51.100;17.068;2024-02-15T12:50:35;3.38;;;1.80;;
13718;SDS011;6931;51.100;17.068;2024-02-15T12:53:01;1.63;;;1.52;;
13718;SDS011;6931;51.100;17.068;2024-02-15T12:55:29;2.80;;;1.80;;
13718;SDS011;6931;51.100;17.068;2024-02-15T12:58:02;2.47;;;1.77;;
13718;SDS011;6931;51.100;17.068;2024-02-15T13:00:30;4.55;;;2.28;;
13718;SDS011;6931;51.100;17.068;2024-02-15T13:03:03;2.95;;;1.90;;
13718;SDS011;6931;51.100;17.068;2024-02-15T13:05:30;4.68;;;2.15;;
13718;SDS011;6931;51.100;17.068;2024-02-15T13:07:57;7.07;;;3.70;;
13718;SDS011;6931;51.100;17.068;2024-02-15T13:10:24;3.35;;;2.17;;
13718;SDS011;6931;51.100;17.068;2024-02-15T13:12:52;6.03;;;1.98;;
13718;SDS011;6931;51.100;17.068;2024-02-15T13:15:19;6.50;;;2.25;;
13718;SDS011;6931;51.100;17.068;2024-02-15T13:17:48;3.47;;;2.60;;
13718;SDS011;6931;51.100;17.068;2024-02-15T13:20:18;4.20;;;2.95;;
13718;SDS011;6931;51.100;17.068;2024-02-15T13:22:46;5.15;;;4.65;;
13718;SDS011;6931;51.100;17.068;2024-02-15T13:25:16;10.50;;;3.00;;
13718;SDS011;6931;51.100;17.068;2024-02-15T13:27:43;3.70;;;3.10;;
13718;SDS011;6931;51.100;17.068;2024-02-15T13:30:10;4.55;;;3.40;;
13718;SDS011;6931;51.100;17.068;2024-02-15T13:32:38;4.30;;;3.60;;
13718;SDS011;6931;51.100;17.068;2024-02-15T13:35:05;6.65;;;3.60;;
13718;SDS011;6931;51.100;17.068;2024-02-15T13:37:57;5.55;;;4.10;;
13718;SDS011;6931;51.100;17.068;2024-02-15T13:40:27;9.30;;;4.95;;
13718;SDS011;6931;51.100;17.068;2024-02-15T13:42:55;6.40;;;5.03;;
13718;SDS011;6931;51.100;17.068;2024-02-15T13:45:29;8.55;;;5.82;;
13718;SDS011;6931;51.100;17.068;2024-02-15T13:47:59;6.80;;;6.05;;
13718;SDS011;6931;51.100;17.068;2024-02-15T13:50:29;6.85;;;5.13;;
13718;SDS011;6931;51.100;17.068;2024-02-15T13:52:56;8.95;;;5.25;;
13718;SDS011;6931;51.100;17.068;2024-02-15T13:55:24;6.68;;;5.20;;
13718;SDS011;6931;51.100;17.068;2024-02-15T13:57:52;7.65;;;5.25;;
13718;SDS011;6931;51.100;17.068;2024-02-15T14:00:19;6.57;;;5.38;;
13718;SDS011;6931;51.100;17.068;2024-02-15T14:02:49;6.95;;;5.00;;
13718;SDS011;6931;51.100;17.068;2024-02-15T14:05:16;6.18;;;4.88;;
13718;SDS011;6931;51.100;17.068;2024-02-15T14:07:49;6.70;;;5.05;;
13718;SDS011;6931;51.100;17.068;2024-02-15T14:10:16;6.90;;;5.07;;
13718;SDS011;6931;51.100;17.068;2024-02-15T14:12:47;6.32;;;4.88;;
13718;SDS011;6931;51.100;17.068;2024-02-15T14:15:17;4.88;;;4.32;;
13718;SDS011;6931;51.100;17.068;2024-02-15T14:17:45;6.25;;;4.80;;
13718;SDS011;6931;51.100;17.068;2024-02-15T14:20:12;6.20;;;4.85;;
13718;SDS011;6931;51.100;17.068;2024-02-15T14:22:45;4.80;;;4.07;;
13718;SDS011;6931;51.100;17.068;2024-02-15T14:25:12;6.95;;;4.25;;
13718;SDS011;6931;51.100;17.068;2024-02-15T14:27:39;5.00;;;4.25;;
13718;SDS011;6931;51.100;17.068;2024-02-15T14:30:06;6.13;;;4.72;;
13718;SDS011;6931;51.100;17.068;2024-02-15T14:32:51;7.07;;;4.80;;
13718;SDS011;6931;51.100;17.068;2024-02-15T14:35:33;6.97;;;4.70;;
13718;SDS011;6931;51.100;17.068;2024-02-15T14:38:06;6.40;;;4.55;;
13718;SDS011;6931;51.100;17.068;2024-02-15T14:40:34;5.88;;;4.90;;
13718;SDS011;6931;51.100;17.068;2024-02-15T14:43:03;5.93;;;4.63;;
13718;SDS011;6931;51.100;17.068;2024-02-15T14:45:33;5.88;;;4.50;;
13718;SDS011;6931;51.100;17.068;2024-02-15T14:48:01;5.78;;;4.68;;
13718;SDS011;6931;51.100;17.068;2024-02-15T14:50:29;6.30;;;3.97;;
13718;SDS011;6931;51.100;17.068;2024-02-15T14:52:56;7.20;;;5.30;;
13718;SDS011;6931;51.100;17.068;2024-02-15T14:55:23;6.65;;;5.00;;
13718;SDS011;6931;51.100;17.068;2024-02-15T14:57:49;7.47;;;4.22;;
13718;SDS011;6931;51.100;17.068;2024-02-15T15:00:16;5.82;;;4.82;;
13718;SDS011;6931;51.100;17.068;2024-02-15T15:02:46;6.32;;;5.00;;
13718;SDS011;6931;51.100;17.068;2024-02-15T15:05:15;6.40;;;4.20;;
13718;SDS011;6931;51.100;17.068;2024-02-15T15:08:01;5.63;;;4.38;;